sensor_id;sensor_type;location;lat;lon;timestamp;P1;durP1;ratioP1;P2;durP2;ratioP2
40198;SDS011;25906;43.536;26.068;2023-04-19T00:00:16;14.57;;;7.63;;
40198;SDS011;25906;43.536;26.068;2023-04-19T00:03:02;16.35;;;7.95;;
40198;SDS011;25906;43.536;26.068;2023-04-19T00:05:47;17.92;;;8.98;;
40198;SDS011;25906;43.536;26.068;2023-04-19T00:08:33;20.70;;;9.57;;
40198;SDS011;25906;43.536;26.068;2023-04-19T00:11:18;20.77;;;9.45;;
40198;SDS011;25906;43.536;26.068;2023-04-19T00:14:04;18.52;;;8.70;;
40198;SDS011;25906;43.536;26.068;2023-04-19T00:16:49;18.50;;;9.02;;
40198;SDS011;25906;43.536;26.068;2023-04-19T00:19:34;19.20;;;8.45;;
40198;SDS011;25906;43.536;26.068;2023-04-19T00:22:20;17.23;;;8.65;;
40198;SDS011;25906;43.536;26.068;2023-04-19T00:25:06;15.60;;;8.88;;
40198;SDS011;25906;43.536;26.068;2023-04-19T00:27:51;16.35;;;7.85;;
40198;SDS011;25906;43.536;26.068;2023-04-19T00:30:37;19.52;;;8.38;;
40198;SDS011;25906;43.536;26.068;2023-04-19T00:33:22;13.40;;;8.05;;
40198;SDS011;25906;43.536;26.068;2023-04-19T00:36:08;17.77;;;8.65;;
40198;SDS011;25906;43.536;26.068;2023-04-19T00:38:54;16.83;;;8.90;;
40198;SDS011;25906;43.536;26.068;2023-04-19T00:41:40;14.23;;;8.57;;
40198;SDS011;25906;43.536;26.068;2023-04-19T00:44:25;18.60;;;8.68;;
40198;SDS011;25906;43.536;26.068;2023-04-19T00:47:11;22.95;;;9.00;;
40198;SDS011;25906;43.536;26.068;2023-04-19T00:49:58;20.85;;;9.50;;
40198;SDS011;25906;43.536;26.068;2023-04-19T00:52:43;19.10;;;10.30;;
40198;SDS011;25906;43.536;26.068;2023-04-19T00:55:30;15.48;;;9.15;;
40198;SDS011;25906;43.536;26.068;2023-04-19T00:58:15;17.98;;;8.85;;
40198;SDS011;25906;43.536;26.068;2023-04-19T01:01:02;15.18;;;8.82;;
40198;SDS011;25906;43.536;26.068;2023-04-19T01:03:47;17.75;;;9.98;;
40198;SDS011;25906;43.536;26.068;2023-04-19T01:06:36;19.42;;;9.50;;
40198;SDS011;25906;43.536;26.068;2023-04-19T01:09:24;21.20;;;10.13;;
40198;SDS011;25906;43.536;26.068;2023-04-19T01:12:09;24.13;;;10.93;;
40198;SDS011;25906;43.536;26.068;2023-04-19T01:14:55;18.35;;;9.93;;
40198;SDS011;25906;43.536;26.068;2023-04-19T01:17:40;16.73;;;9.80;;
40198;SDS011;25906;43.536;26.068;2023-04-19T01:20:26;17.45;;;9.50;;
40198;SDS011;25906;43.536;26.068;2023-04-19T01:23:11;17.10;;;8.55;;
40198;SDS011;25906;43.536;26.068;2023-04-19T01:25:56;20.95;;;9.50;;
40198;SDS011;25906;43.536;26.068;2023-04-19T01:28:42;19.83;;;10.90;;
40198;SDS011;25906;43.536;26.068;2023-04-19T01:31:27;20.27;;;10.90;;
40198;SDS011;25906;43.536;26.068;2023-04-19T01:34:13;19.40;;;10.45;;
40198;SDS011;25906;43.536;26.068;2023-04-19T01:36:58;20.92;;;10.70;;
40198;SDS011;25906;43.536;26.068;2023-04-19T01:39:43;20.85;;;10.73;;
40198;SDS011;25906;43.536;26.068;2023-04-19T01:42:29;18.08;;;10.85;;
40198;SDS011;25906;43.536;26.068;2023-04-19T01:45:14;19.58;;;10.48;;
40198;SDS011;25906;43.536;26.068;2023-04-19T01:48:00;25.48;;;11.45;;
40198;SDS011;25906;43.536;26.068;2023-04-19T01:50:48;18.23;;;9.88;;
40198;SDS011;25906;43.536;26.068;2023-04-19T01:53:33;18.58;;;10.95;;
40198;SDS011;25906;43.536;26.068;2023-04-19T01:56:19;18.75;;;9.73;;
40198;SDS011;25906;43.536;26.068;2023-04-19T01:59:05;20.15;;;10.52;;
40198;SDS011;25906;43.536;26.068;2023-04-19T02:01:51;18.33;;;9.57;;
40198;SDS011;25906;43.536;26.068;2023-04-19T02:04:36;16.73;;;9.38;;
40198;SDS011;25906;43.536;26.068;2023-04-19T02:07:22;13.60;;;9.43;;
40198;SDS011;25906;43.536;26.068;2023-04-19T02:10:10;18.95;;;9.48;;
40198;SDS011;25906;43.536;26.068;2023-04-19T02:12:55;20.92;;;10.60;;
40198;SDS011;25906;43.536;26.068;2023-04-19T02:15:41;22.52;;;11.00;;
40198;SDS011;25906;43.536;26.068;2023-04-19T02:18:26;19.42;;;10.15;;
40198;SDS011;25906;43.536;26.068;2023-04-19T02:21:13;15.10;;;8.82;;
40198;SDS011;25906;43.536;26.068;2023-04-19T02:23:59;19.45;;;10.02;;
40198;SDS011;25906;43.536;26.068;2023-04-19T02:29:30;22.75;;;11.38;;
40198;SDS011;25906;43.536;26.068;2023-04-19T02:32:16;20.33;;;11.02;;
40198;SDS011;25906;43.536;26.068;2023-04-19T02:35:02;21.23;;;11.25;;
40198;SDS011;25906;43.536;26.068;2023-04-19T02:37:47;25.50;;;10.55;;
40198;SDS011;25906;43.536;26.068;2023-04-19T02:40:33;17.60;;;9.68;;
40198;SDS011;25906;43.536;26.068;2023-04-19T02:43:18;16.67;;;10.43;;
40198;SDS011;25906;43.536;26.068;2023-04-19T02:46:03;15.93;;;9.65;;
40198;SDS011;25906;43.536;26.068;2023-04-19T02:48:49;16.30;;;9.65;;
40198;SDS011;25906;43.536;26.068;2023-04-19T02:51:34;17.77;;;10.02;;
40198;SDS011;25906;43.536;26.068;2023-04-19T02:54:20;15.43;;;9.50;;
40198;SDS011;25906;43.536;26.068;2023-04-19T02:57:05;14.40;;;8.20;;
40198;SDS011;25906;43.536;26.068;2023-04-19T02:59:50;13.95;;;8.55;;
40198;SDS011;25906;43.536;26.068;2023-04-19T03:02:36;13.48;;;7.82;;
40198;SDS011;25906;43.536;26.068;2023-04-19T03:05:22;16.98;;;8.50;;
40198;SDS011;25906;43.536;26.068;2023-04-19T03:10:54;14.63;;;8.32;;
40198;SDS011;25906;43.536;26.068;2023-04-19T03:13:40;15.75;;;8.27;;
40198;SDS011;25906;43.536;26.068;2023-04-19T03:16:25;17.80;;;8.13;;
40198;SDS011;25906;43.536;26.068;2023-04-19T03:19:11;12.63;;;7.20;;
40198;SDS011;25906;43.536;26.068;2023-04-19T03:21:56;17.30;;;8.48;;
40198;SDS011;25906;43.536;26.068;2023-04-19T03:24:41;13.77;;;8.15;;
40198;SDS011;25906;43.536;26.068;2023-04-19T03:27:27;17.10;;;7.50;;
40198;SDS011;25906;43.536;26.068;2023-04-19T03:30:12;14.05;;;6.90;;
40198;SDS011;25906;43.536;26.068;2023-04-19T03:32:57;12.32;;;6.93;;
40198;SDS011;25906;43.536;26.068;2023-04-19T03:35:44;11.25;;;6.65;;
40198;SDS011;25906;43.536;26.068;2023-04-19T03:38:29;13.02;;;6.28;;
40198;SDS011;25906;43.536;26.068;2023-04-19T03:41:18;14.60;;;7.07;;
40198;SDS011;25906;43.536;26.068;2023-04-19T03:44:05;14.52;;;6.70;;
40198;SDS011;25906;43.536;26.068;2023-04-19T03:46:51;10.27;;;5.95;;
40198;SDS011;25906;43.536;26.068;2023-04-19T03:49:37;9.45;;;5.55;;
40198;SDS011;25906;43.536;26.068;2023-04-19T03:52:22;9.43;;;5.40;;
40198;SDS011;25906;43.536;26.068;2023-04-19T03:55:09;7.95;;;5.38;;
40198;SDS011;25906;43.536;26.068;2023-04-19T03:57:56;8.15;;;5.38;;
40198;SDS011;25906;43.536;26.068;2023-04-19T04:00:41;7.57;;;4.88;;
40198;SDS011;25906;43.536;26.068;2023-04-19T04:03:27;10.48;;;4.93;;
40198;SDS011;25906;43.536;26.068;2023-04-19T04:06:12;10.13;;;4.90;;
40198;SDS011;25906;43.536;26.068;2023-04-19T04:08:58;7.72;;;4.55;;
40198;SDS011;25906;43.536;26.068;2023-04-19T04:11:43;7.70;;;5.15;;
40198;SDS011;25906;43.536;26.068;2023-04-19T04:14:28;6.78;;;4.63;;
40198;SDS011;25906;43.536;26.068;2023-04-19T04:17:14;7.93;;;5.20;;
40198;SDS011;25906;43.536;26.068;2023-04-19T04:19:59;8.75;;;4.88;;
40198;SDS011;25906;43.536;26.068;2023-04-19T04:22:45;11.18;;;5.45;;
40198;SDS011;25906;43.536;26.068;2023-04-19T04:25:31;11.45;;;5.68;;
40198;SDS011;25906;43.536;26.068;2023-04-19T04:28:17;7.88;;;4.93;;
40198;SDS011;25906;43.536;26.068;2023-04-19T04:31:02;10.70;;;4.80;;
40198;SDS011;25906;43.536;26.068;2023-04-19T04:33:47;5.97;;;4.75;;
40198;SDS011;25906;43.536;26.068;2023-04-19T04:36:33;8.30;;;4.57;;
40198;SDS011;25906;43.536;26.068;2023-04-19T04:39:20;6.75;;;4.15;;
40198;SDS011;25906;43.536;26.068;2023-04-19T04:42:05;7.47;;;4.60;;
40198;SDS011;25906;43.536;26.068;2023-04-19T04:44:54;6.70;;;4.70;;
40198;SDS011;25906;43.536;26.068;2023-04-19T04:47:41;8.75;;;5.15;;
40198;SDS011;25906;43.536;26.068;2023-04-19T04:50:27;5.93;;;4.15;;
40198;SDS011;25906;43.536;26.068;2023-04-19T04:53:12;6.75;;;4.15;;
40198;SDS011;25906;43.536;26.068;2023-04-19T04:55:58;6.57;;;4.18;;
40198;SDS011;25906;43.536;26.068;2023-04-19T04:58:43;10.13;;;3.80;;
40198;SDS011;25906;43.536;26.068;2023-04-19T05:01:29;5.50;;;3.72;;
40198;SDS011;25906;43.536;26.068;2023-04-19T05:04:14;7.07;;;4.22;;
40198;SDS011;25906;43.536;26.068;2023-04-19T05:07:00;5.32;;;4.07;;
40198;SDS011;25906;43.536;26.068;2023-04-19T05:09:45;5.38;;;3.22;;
40198;SDS011;25906;43.536;26.068;2023-04-19T05:12:30;6.20;;;4.35;;
40198;SDS011;25906;43.536;26.068;2023-04-19T05:15:16;7.40;;;4.45;;
40198;SDS011;25906;43.536;26.068;2023-04-19T05:18:01;7.03;;;4.68;;
40198;SDS011;25906;43.536;26.068;2023-04-19T05:20:47;7.70;;;4.47;;
40198;SDS011;25906;43.536;26.068;2023-04-19T05:23:32;5.75;;;4.03;;
40198;SDS011;25906;43.536;26.068;2023-04-19T05:26:17;8.25;;;3.75;;
40198;SDS011;25906;43.536;26.068;2023-04-19T05:29:03;6.43;;;4.22;;
40198;SDS011;25906;43.536;26.068;2023-04-19T05:31:48;4.93;;;3.90;;
40198;SDS011;25906;43.536;26.068;2023-04-19T05:34:34;5.65;;;3.88;;
40198;SDS011;25906;43.536;26.068;2023-04-19T05:37:20;6.38;;;3.42;;
40198;SDS011;25906;43.536;26.068;2023-04-19T05:40:08;7.38;;;3.75;;
40198;SDS011;25906;43.536;26.068;2023-04-19T05:42:54;4.72;;;3.60;;
40198;SDS011;25906;43.536;26.068;2023-04-19T05:45:39;8.85;;;3.33;;
40198;SDS011;25906;43.536;26.068;2023-04-19T05:48:25;4.47;;;3.33;;
40198;SDS011;25906;43.536;26.068;2023-04-19T05:51:10;4.57;;;3.33;;
40198;SDS011;25906;43.536;26.068;2023-04-19T05:53:56;4.75;;;3.28;;
40198;SDS011;25906;43.536;26.068;2023-04-19T05:56:41;5.65;;;3.63;;
40198;SDS011;25906;43.536;26.068;2023-04-19T05:59:27;4.53;;;3.60;;
40198;SDS011;25906;43.536;26.068;2023-04-19T06:02:12;5.53;;;3.17;;
40198;SDS011;25906;43.536;26.068;2023-04-19T06:04:58;4.35;;;2.83;;
40198;SDS011;25906;43.536;26.068;2023-04-19T06:07:43;4.70;;;3.00;;
40198;SDS011;25906;43.536;26.068;2023-04-19T06:10:29;5.55;;;3.60;;
40198;SDS011;25906;43.536;26.068;2023-04-19T06:13:15;3.35;;;2.75;;
40198;SDS011;25906;43.536;26.068;2023-04-19T06:16:01;3.83;;;2.70;;
40198;SDS011;25906;43.536;26.068;2023-04-19T06:18:47;3.22;;;2.35;;
40198;SDS011;25906;43.536;26.068;2023-04-19T06:21:32;3.80;;;2.95;;
40198;SDS011;25906;43.536;26.068;2023-04-19T06:24:18;5.40;;;2.30;;
40198;SDS011;25906;43.536;26.068;2023-04-19T06:27:04;3.10;;;2.47;;
40198;SDS011;25906;43.536;26.068;2023-04-19T06:29:49;3.42;;;2.33;;
40198;SDS011;25906;43.536;26.068;2023-04-19T06:32:35;12.63;;;7.35;;
40198;SDS011;25906;43.536;26.068;2023-04-19T06:35:20;6.32;;;4.13;;
40198;SDS011;25906;43.536;26.068;2023-04-19T06:38:06;3.05;;;2.40;;
40198;SDS011;25906;43.536;26.068;2023-04-19T06:40:51;4.65;;;2.35;;
40198;SDS011;25906;43.536;26.068;2023-04-19T06:43:37;34.50;;;16.48;;
40198;SDS011;25906;43.536;26.068;2023-04-19T06:46:24;47.50;;;21.17;;
40198;SDS011;25906;43.536;26.068;2023-04-19T06:49:11;40.72;;;19.63;;
40198;SDS011;25906;43.536;26.068;2023-04-19T06:51:57;16.13;;;9.85;;
40198;SDS011;25906;43.536;26.068;2023-04-19T06:54:50;12.95;;;8.63;;
40198;SDS011;25906;43.536;26.068;2023-04-19T06:57:35;8.57;;;5.28;;
40198;SDS011;25906;43.536;26.068;2023-04-19T07:00:21;6.88;;;4.97;;
40198;SDS011;25906;43.536;26.068;2023-04-19T07:05:52;6.53;;;3.40;;
40198;SDS011;25906;43.536;26.068;2023-04-19T07:08:40;9.18;;;3.53;;
40198;SDS011;25906;43.536;26.068;2023-04-19T07:11:25;4.03;;;2.88;;
40198;SDS011;25906;43.536;26.068;2023-04-19T07:14:11;7.85;;;3.35;;
40198;SDS011;25906;43.536;26.068;2023-04-19T07:16:56;4.70;;;3.80;;
40198;SDS011;25906;43.536;26.068;2023-04-19T07:19:42;4.55;;;3.72;;
40198;SDS011;25906;43.536;26.068;2023-04-19T07:22:32;13.85;;;6.05;;
40198;SDS011;25906;43.536;26.068;2023-04-19T07:25:18;5.93;;;3.88;;
40198;SDS011;25906;43.536;26.068;2023-04-19T07:28:03;4.78;;;3.67;;
40198;SDS011;25906;43.536;26.068;2023-04-19T07:30:48;7.30;;;4.95;;
40198;SDS011;25906;43.536;26.068;2023-04-19T07:33:34;7.35;;;3.17;;
40198;SDS011;25906;43.536;26.068;2023-04-19T07:36:19;38.25;;;13.95;;
40198;SDS011;25906;43.536;26.068;2023-04-19T07:39:05;9.40;;;4.35;;
40198;SDS011;25906;43.536;26.068;2023-04-19T07:41:50;10.70;;;5.55;;
40198;SDS011;25906;43.536;26.068;2023-04-19T07:44:36;14.30;;;5.60;;
40198;SDS011;25906;43.536;26.068;2023-04-19T07:47:21;7.13;;;3.45;;
40198;SDS011;25906;43.536;26.068;2023-04-19T07:50:07;6.32;;;4.28;;
40198;SDS011;25906;43.536;26.068;2023-04-19T07:52:53;6.43;;;3.95;;
40198;SDS011;25906;43.536;26.068;2023-04-19T07:55:38;4.95;;;3.63;;
40198;SDS011;25906;43.536;26.068;2023-04-19T07:58:24;8.60;;;3.40;;
40198;SDS011;25906;43.536;26.068;2023-04-19T08:01:10;4.15;;;3.72;;
40198;SDS011;25906;43.536;26.068;2023-04-19T08:03:56;5.85;;;3.70;;
40198;SDS011;25906;43.536;26.068;2023-04-19T08:06:41;5.93;;;3.72;;
40198;SDS011;25906;43.536;26.068;2023-04-19T08:09:27;5.22;;;3.53;;
40198;SDS011;25906;43.536;26.068;2023-04-19T08:12:12;5.03;;;3.80;;
40198;SDS011;25906;43.536;26.068;2023-04-19T08:14:57;4.60;;;3.38;;
40198;SDS011;25906;43.536;26.068;2023-04-19T08:17:43;8.68;;;4.47;;
40198;SDS011;25906;43.536;26.068;2023-04-19T08:20:28;9.07;;;4.40;;
40198;SDS011;25906;43.536;26.068;2023-04-19T08:23:14;6.85;;;3.90;;
40198;SDS011;25906;43.536;26.068;2023-04-19T08:25:59;5.20;;;3.20;;
40198;SDS011;25906;43.536;26.068;2023-04-19T08:28:45;5.43;;;4.03;;
40198;SDS011;25906;43.536;26.068;2023-04-19T08:31:30;6.85;;;3.42;;
40198;SDS011;25906;43.536;26.068;2023-04-19T08:34:16;4.45;;;3.80;;
40198;SDS011;25906;43.536;26.068;2023-04-19T08:37:01;8.57;;;4.15;;
40198;SDS011;25906;43.536;26.068;2023-04-19T08:39:47;5.88;;;3.67;;
40198;SDS011;25906;43.536;26.068;2023-04-19T08:42:32;5.53;;;3.58;;
40198;SDS011;25906;43.536;26.068;2023-04-19T08:45:18;5.35;;;3.75;;
40198;SDS011;25906;43.536;26.068;2023-04-19T08:48:07;5.63;;;3.45;;
40198;SDS011;25906;43.536;26.068;2023-04-19T08:50:55;5.30;;;4.00;;
40198;SDS011;25906;43.536;26.068;2023-04-19T08:53:43;25.50;;;4.97;;
40198;SDS011;25906;43.536;26.068;2023-04-19T08:56:28;10.10;;;4.65;;
40198;SDS011;25906;43.536;26.068;2023-04-19T08:59:14;8.43;;;3.47;;
40198;SDS011;25906;43.536;26.068;2023-04-19T09:02:00;3.60;;;2.78;;
40198;SDS011;25906;43.536;26.068;2023-04-19T09:04:46;7.72;;;3.40;;
40198;SDS011;25906;43.536;26.068;2023-04-19T09:07:31;9.13;;;4.10;;
40198;SDS011;25906;43.536;26.068;2023-04-19T09:10:18;11.55;;;5.38;;
40198;SDS011;25906;43.536;26.068;2023-04-19T09:13:04;8.40;;;4.43;;
40198;SDS011;25906;43.536;26.068;2023-04-19T09:15:50;3.70;;;2.78;;
40198;SDS011;25906;43.536;26.068;2023-04-19T09:18:53;7.57;;;4.00;;
40198;SDS011;25906;43.536;26.068;2023-04-19T09:21:40;8.73;;;5.20;;
40198;SDS011;25906;43.536;26.068;2023-04-19T09:24:37;10.20;;;4.10;;
40198;SDS011;25906;43.536;26.068;2023-04-19T09:27:27;7.15;;;3.15;;
40198;SDS011;25906;43.536;26.068;2023-04-19T09:30:17;5.57;;;3.25;;
40198;SDS011;25906;43.536;26.068;2023-04-19T09:33:09;7.03;;;2.83;;
40198;SDS011;25906;43.536;26.068;2023-04-19T09:35:54;6.75;;;2.50;;
40198;SDS011;25906;43.536;26.068;2023-04-19T09:38:46;3.92;;;2.20;;
40198;SDS011;25906;43.536;26.068;2023-04-19T09:41:33;7.30;;;2.80;;
40198;SDS011;25906;43.536;26.068;2023-04-19T09:44:18;3.92;;;2.97;;
40198;SDS011;25906;43.536;26.068;2023-04-19T09:47:20;5.00;;;2.72;;
40198;SDS011;25906;43.536;26.068;2023-04-19T09:50:10;5.88;;;2.63;;
40198;SDS011;25906;43.536;26.068;2023-04-19T09:52:56;4.40;;;2.80;;
40198;SDS011;25906;43.536;26.068;2023-04-19T09:55:41;3.83;;;2.30;;
40198;SDS011;25906;43.536;26.068;2023-04-19T09:58:28;5.22;;;2.42;;
40198;SDS011;25906;43.536;26.068;2023-04-19T10:01:13;5.40;;;2.65;;
40198;SDS011;25906;43.536;26.068;2023-04-19T10:04:00;4.90;;;2.65;;
40198;SDS011;25906;43.536;26.068;2023-04-19T10:06:52;6.40;;;3.60;;
40198;SDS011;25906;43.536;26.068;2023-04-19T10:09:38;5.90;;;2.72;;
40198;SDS011;25906;43.536;26.068;2023-04-19T10:12:24;4.25;;;2.63;;
40198;SDS011;25906;43.536;26.068;2023-04-19T10:15:10;5.07;;;2.80;;
40198;SDS011;25906;43.536;26.068;2023-04-19T10:17:58;10.65;;;2.88;;
40198;SDS011;25906;43.536;26.068;2023-04-19T10:20:57;5.03;;;3.17;;
40198;SDS011;25906;43.536;26.068;2023-04-19T10:23:45;7.55;;;3.10;;
40198;SDS011;25906;43.536;26.068;2023-04-19T10:32:44;4.18;;;3.13;;
40198;SDS011;25906;43.536;26.068;2023-04-19T10:35:36;7.10;;;3.00;;
40198;SDS011;25906;43.536;26.068;2023-04-19T10:41:56;6.82;;;3.05;;
40198;SDS011;25906;43.536;26.068;2023-04-19T10:45:14;4.07;;;2.63;;
40198;SDS011;25906;43.536;26.068;2023-04-19T10:48:06;10.23;;;2.78;;
40198;SDS011;25906;43.536;26.068;2023-04-19T10:51:14;4.00;;;2.58;;
40198;SDS011;25906;43.536;26.068;2023-04-19T10:57:15;11.07;;;3.60;;
40198;SDS011;25906;43.536;26.068;2023-04-19T11:00:19;7.18;;;2.75;;
40198;SDS011;25906;43.536;26.068;2023-04-19T11:06:30;4.93;;;2.92;;
40198;SDS011;25906;43.536;26.068;2023-04-19T11:09:27;5.28;;;3.08;;
40198;SDS011;25906;43.536;26.068;2023-04-19T11:12:16;7.95;;;2.90;;
40198;SDS011;25906;43.536;26.068;2023-04-19T11:15:04;9.80;;;3.20;;
40198;SDS011;25906;43.536;26.068;2023-04-19T11:17:50;5.00;;;2.53;;
40198;SDS011;25906;43.536;26.068;2023-04-19T11:20:36;6.00;;;3.05;;
40198;SDS011;25906;43.536;26.068;2023-04-19T11:23:22;4.30;;;3.15;;
40198;SDS011;25906;43.536;26.068;2023-04-19T11:26:10;7.72;;;3.67;;
40198;SDS011;25906;43.536;26.068;2023-04-19T11:28:56;6.43;;;3.53;;
40198;SDS011;25906;43.536;26.068;2023-04-19T11:31:44;8.57;;;4.40;;
40198;SDS011;25906;43.536;26.068;2023-04-19T11:34:37;7.95;;;3.80;;
40198;SDS011;25906;43.536;26.068;2023-04-19T11:37:30;5.03;;;3.55;;
40198;SDS011;25906;43.536;26.068;2023-04-19T11:40:17;8.20;;;3.25;;
40198;SDS011;25906;43.536;26.068;2023-04-19T11:43:04;6.32;;;3.22;;
40198;SDS011;25906;43.536;26.068;2023-04-19T11:45:49;8.35;;;3.88;;
40198;SDS011;25906;43.536;26.068;2023-04-19T11:48:35;10.95;;;4.25;;
40198;SDS011;25906;43.536;26.068;2023-04-19T11:51:21;8.93;;;4.25;;
40198;SDS011;25906;43.536;26.068;2023-04-19T11:57:01;8.13;;;3.65;;
40198;SDS011;25906;43.536;26.068;2023-04-19T12:00:03;6.57;;;3.60;;
40198;SDS011;25906;43.536;26.068;2023-04-19T12:05:56;5.70;;;3.10;;
40198;SDS011;25906;43.536;26.068;2023-04-19T12:08:46;7.07;;;3.33;;
40198;SDS011;25906;43.536;26.068;2023-04-19T12:11:44;7.75;;;3.40;;
40198;SDS011;25906;43.536;26.068;2023-04-19T12:14:30;8.63;;;3.75;;
40198;SDS011;25906;43.536;26.068;2023-04-19T12:17:15;9.27;;;3.05;;
40198;SDS011;25906;43.536;26.068;2023-04-19T12:20:01;8.98;;;3.17;;
40198;SDS011;25906;43.536;26.068;2023-04-19T12:22:46;5.22;;;3.10;;
40198;SDS011;25906;43.536;26.068;2023-04-19T12:25:33;6.07;;;3.85;;
40198;SDS011;25906;43.536;26.068;2023-04-19T12:28:18;8.80;;;3.42;;
40198;SDS011;25906;43.536;26.068;2023-04-19T12:31:04;5.18;;;2.95;;
40198;SDS011;25906;43.536;26.068;2023-04-19T12:36:35;4.60;;;3.10;;
40198;SDS011;25906;43.536;26.068;2023-04-19T12:39:20;7.22;;;3.50;;
40198;SDS011;25906;43.536;26.068;2023-04-19T12:42:06;5.63;;;3.35;;
40198;SDS011;25906;43.536;26.068;2023-04-19T12:44:51;6.47;;;3.40;;
40198;SDS011;25906;43.536;26.068;2023-04-19T12:47:36;6.65;;;3.58;;
40198;SDS011;25906;43.536;26.068;2023-04-19T12:50:22;9.20;;;3.53;;
40198;SDS011;25906;43.536;26.068;2023-04-19T12:53:08;8.27;;;3.13;;
40198;SDS011;25906;43.536;26.068;2023-04-19T12:55:53;4.82;;;2.72;;
40198;SDS011;25906;43.536;26.068;2023-04-19T12:58:38;7.30;;;3.00;;
40198;SDS011;25906;43.536;26.068;2023-04-19T13:01:24;7.35;;;2.85;;
40198;SDS011;25906;43.536;26.068;2023-04-19T13:04:09;7.68;;;3.08;;
40198;SDS011;25906;43.536;26.068;2023-04-19T13:09:41;5.00;;;2.72;;
40198;SDS011;25906;43.536;26.068;2023-04-19T13:12:26;5.55;;;3.03;;
40198;SDS011;25906;43.536;26.068;2023-04-19T13:17:57;3.78;;;2.50;;
40198;SDS011;25906;43.536;26.068;2023-04-19T13:20:43;6.53;;;2.97;;
40198;SDS011;25906;43.536;26.068;2023-04-19T13:23:28;7.43;;;2.60;;
40198;SDS011;25906;43.536;26.068;2023-04-19T13:26:14;3.65;;;2.45;;
40198;SDS011;25906;43.536;26.068;2023-04-19T13:28:59;11.10;;;3.05;;
40198;SDS011;25906;43.536;26.068;2023-04-19T13:31:45;4.13;;;2.85;;
40198;SDS011;25906;43.536;26.068;2023-04-19T13:34:30;7.78;;;2.53;;
40198;SDS011;25906;43.536;26.068;2023-04-19T13:37:16;3.92;;;2.08;;
40198;SDS011;25906;43.536;26.068;2023-04-19T13:40:01;3.40;;;2.50;;
40198;SDS011;25906;43.536;26.068;2023-04-19T13:42:48;5.95;;;2.60;;
40198;SDS011;25906;43.536;26.068;2023-04-19T13:45:33;7.32;;;2.60;;
40198;SDS011;25906;43.536;26.068;2023-04-19T13:48:19;7.32;;;2.85;;
40198;SDS011;25906;43.536;26.068;2023-04-19T13:51:05;2.67;;;2.45;;
40198;SDS011;25906;43.536;26.068;2023-04-19T13:56:37;6.25;;;2.97;;
40198;SDS011;25906;43.536;26.068;2023-04-19T13:59:22;5.57;;;2.42;;
40198;SDS011;25906;43.536;26.068;2023-04-19T14:02:10;3.47;;;2.65;;
40198;SDS011;25906;43.536;26.068;2023-04-19T14:04:55;3.60;;;2.65;;
40198;SDS011;25906;43.536;26.068;2023-04-19T14:07:42;7.57;;;2.70;;
40198;SDS011;25906;43.536;26.068;2023-04-19T14:10:28;5.63;;;2.90;;
40198;SDS011;25906;43.536;26.068;2023-04-19T14:13:13;5.85;;;2.83;;
40198;SDS011;25906;43.536;26.068;2023-04-19T14:15:59;9.30;;;2.83;;
40198;SDS011;25906;43.536;26.068;2023-04-19T14:18:44;6.68;;;3.00;;
40198;SDS011;25906;43.536;26.068;2023-04-19T14:21:30;6.00;;;3.25;;
40198;SDS011;25906;43.536;26.068;2023-04-19T14:24:15;11.80;;;3.25;;
40198;SDS011;25906;43.536;26.068;2023-04-19T14:27:01;8.52;;;2.97;;
40198;SDS011;25906;43.536;26.068;2023-04-19T14:29:46;4.20;;;2.95;;
40198;SDS011;25906;43.536;26.068;2023-04-19T14:32:32;3.78;;;2.78;;
40198;SDS011;25906;43.536;26.068;2023-04-19T14:35:17;6.07;;;3.28;;
40198;SDS011;25906;43.536;26.068;2023-04-19T14:38:03;6.32;;;2.70;;
40198;SDS011;25906;43.536;26.068;2023-04-19T14:40:49;7.45;;;3.00;;
40198;SDS011;25906;43.536;26.068;2023-04-19T14:43:34;5.72;;;3.08;;
40198;SDS011;25906;43.536;26.068;2023-04-19T14:46:20;6.43;;;3.13;;
40198;SDS011;25906;43.536;26.068;2023-04-19T14:49:05;11.23;;;3.65;;
40198;SDS011;25906;43.536;26.068;2023-04-19T14:51:51;8.00;;;3.05;;
40198;SDS011;25906;43.536;26.068;2023-04-19T14:54:36;9.82;;;2.80;;
40198;SDS011;25906;43.536;26.068;2023-04-19T14:57:22;6.15;;;3.15;;
40198;SDS011;25906;43.536;26.068;2023-04-19T15:00:08;3.85;;;2.92;;
40198;SDS011;25906;43.536;26.068;2023-04-19T15:02:53;7.38;;;3.20;;
40198;SDS011;25906;43.536;26.068;2023-04-19T15:05:40;4.20;;;3.15;;
40198;SDS011;25906;43.536;26.068;2023-04-19T15:08:25;5.63;;;3.20;;
40198;SDS011;25906;43.536;26.068;2023-04-19T15:11:11;8.00;;;3.30;;
40198;SDS011;25906;43.536;26.068;2023-04-19T15:13:56;6.05;;;3.53;;
40198;SDS011;25906;43.536;26.068;2023-04-19T15:16:41;7.60;;;3.53;;
40198;SDS011;25906;43.536;26.068;2023-04-19T15:19:28;5.45;;;2.88;;
40198;SDS011;25906;43.536;26.068;2023-04-19T15:22:14;4.28;;;2.65;;
40198;SDS011;25906;43.536;26.068;2023-04-19T15:25:00;5.68;;;2.72;;
40198;SDS011;25906;43.536;26.068;2023-04-19T15:27:46;4.68;;;2.80;;
40198;SDS011;25906;43.536;26.068;2023-04-19T15:30:31;3.60;;;2.08;;
40198;SDS011;25906;43.536;26.068;2023-04-19T15:33:17;6.60;;;3.08;;
40198;SDS011;25906;43.536;26.068;2023-04-19T15:36:02;4.65;;;3.35;;
40198;SDS011;25906;43.536;26.068;2023-04-19T15:41:33;6.45;;;3.65;;
40198;SDS011;25906;43.536;26.068;2023-04-19T15:44:19;10.65;;;4.55;;
40198;SDS011;25906;43.536;26.068;2023-04-19T15:47:04;10.25;;;4.80;;
40198;SDS011;25906;43.536;26.068;2023-04-19T15:49:50;11.10;;;5.20;;
40198;SDS011;25906;43.536;26.068;2023-04-19T15:52:36;8.32;;;4.57;;
40198;SDS011;25906;43.536;26.068;2023-04-19T15:55:22;9.35;;;4.05;;
40198;SDS011;25906;43.536;26.068;2023-04-19T15:58:07;6.53;;;3.38;;
40198;SDS011;25906;43.536;26.068;2023-04-19T16:00:52;9.98;;;4.20;;
40198;SDS011;25906;43.536;26.068;2023-04-19T16:03:38;5.68;;;4.00;;
40198;SDS011;25906;43.536;26.068;2023-04-19T16:06:24;6.88;;;3.85;;
40198;SDS011;25906;43.536;26.068;2023-04-19T16:09:09;8.52;;;3.78;;
40198;SDS011;25906;43.536;26.068;2023-04-19T16:11:55;7.35;;;4.18;;
40198;SDS011;25906;43.536;26.068;2023-04-19T16:14:40;8.00;;;4.32;;
40198;SDS011;25906;43.536;26.068;2023-04-19T16:17:25;10.73;;;4.55;;
40198;SDS011;25906;43.536;26.068;2023-04-19T16:20:11;8.05;;;5.32;;
40198;SDS011;25906;43.536;26.068;2023-04-19T16:25:42;7.20;;;4.47;;
40198;SDS011;25906;43.536;26.068;2023-04-19T16:28:27;8.57;;;4.75;;
40198;SDS011;25906;43.536;26.068;2023-04-19T16:31:13;9.02;;;4.50;;
40198;SDS011;25906;43.536;26.068;2023-04-19T16:33:59;12.55;;;5.60;;
40198;SDS011;25906;43.536;26.068;2023-04-19T16:36:44;15.30;;;8.40;;
40198;SDS011;25906;43.536;26.068;2023-04-19T16:39:30;13.80;;;7.75;;
40198;SDS011;25906;43.536;26.068;2023-04-19T16:42:15;12.50;;;6.20;;
40198;SDS011;25906;43.536;26.068;2023-04-19T16:47:47;14.65;;;5.88;;
40198;SDS011;25906;43.536;26.068;2023-04-19T16:50:32;6.90;;;4.90;;
40198;SDS011;25906;43.536;26.068;2023-04-19T16:53:18;9.98;;;4.00;;
40198;SDS011;25906;43.536;26.068;2023-04-19T16:56:03;8.98;;;3.97;;
40198;SDS011;25906;43.536;26.068;2023-04-19T16:58:49;8.25;;;4.13;;
40198;SDS011;25906;43.536;26.068;2023-04-19T17:01:35;13.05;;;4.10;;
40198;SDS011;25906;43.536;26.068;2023-04-19T17:04:20;9.85;;;4.03;;
40198;SDS011;25906;43.536;26.068;2023-04-19T17:07:06;12.07;;;3.88;;
40198;SDS011;25906;43.536;26.068;2023-04-19T17:09:53;5.60;;;3.45;;